sensor_id;sensor_type;location;lat;lon;timestamp;pressure;altitude;pressure_sealevel;temperature;humidity
12868;BME280;33517;49.866;8.320;2022-12-07T00:00:21;100652.13;;;4.51;93.11
12868;BME280;33517;49.866;8.320;2022-12-07T00:03:14;100652.00;;;4.53;92.49
12868;BME280;33517;49.866;8.320;2022-12-07T00:06:07;100648.56;;;4.52;93.02
12868;BME280;33517;49.866;8.320;2022-12-07T00:09:00;100646.09;;;4.40;93.30
12868;BME280;33517;49.866;8.320;2022-12-07T00:11:52;100642.06;;;4.47;93.39
12868;BME280;33517;49.866;8.320;2022-12-07T00:14:43;100634.59;;;4.42;93.40
12868;BME280;33517;49.866;8.320;2022-12-07T00:17:35;100643.63;;;4.27;93.72
12868;BME280;33517;49.866;8.320;2022-12-07T00:20:28;100632.34;;;4.27;94.10
12868;BME280;33517;49.866;8.320;2022-12-07T00:23:21;100632.59;;;4.35;93.88
12868;BME280;33517;49.866;8.320;2022-12-07T00:26:16;100629.03;;;4.47;93.79
12868;BME280;33517;49.866;8.320;2022-12-07T00:29:12;100628.78;;;4.61;93.11
12868;BME280;33517;49.866;8.320;2022-12-07T00:32:06;100623.56;;;4.61;93.28
12868;BME280;33517;49.866;8.320;2022-12-07T00:34:57;100625.25;;;4.51;93.37
12868;BME280;33517;49.866;8.320;2022-12-07T00:37:51;100621.91;;;4.60;93.32
12868;BME280;33517;49.866;8.320;2022-12-07T00:40:42;100631.00;;;4.65;92.99
12868;BME280;33517;49.866;8.320;2022-12-07T00:43:34;100621.06;;;4.71;93.22
12868;BME280;33517;49.866;8.320;2022-12-07T00:46:26;100612.63;;;4.67;93.04
12868;BME280;33517;49.866;8.320;2022-12-07T00:49:18;100606.84;;;4.63;92.79
12868;BME280;33517;49.866;8.320;2022-12-07T00:52:10;100601.06;;;4.60;92.63
12868;BME280;33517;49.866;8.320;2022-12-07T00:55:04;100596.19;;;4.55;93.17
12868;BME280;33517;49.866;8.320;2022-12-07T00:57:56;100598.00;;;4.55;93.06
12868;BME280;33517;49.866;8.320;2022-12-07T01:00:48;100599.91;;;4.53;93.20
12868;BME280;33517;49.866;8.320;2022-12-07T01:03:40;100595.00;;;4.59;93.29
12868;BME280;33517;49.866;8.320;2022-12-07T01:06:32;100590.28;;;4.64;93.02
12868;BME280;33517;49.866;8.320;2022-12-07T01:09:24;100591.56;;;4.70;93.07
12868;BME280;33517;49.866;8.320;2022-12-07T01:12:17;100581.75;;;4.62;92.44
12868;BME280;33517;49.866;8.320;2022-12-07T01:15:10;100575.69;;;4.62;92.84
12868;BME280;33517;49.866;8.320;2022-12-07T01:18:02;100582.94;;;4.58;92.98
12868;BME280;33517;49.866;8.320;2022-12-07T01:20:58;100591.34;;;4.62;93.17
12868;BME280;33517;49.866;8.320;2022-12-07T01:23:51;100601.91;;;4.60;92.96
12868;BME280;33517;49.866;8.320;2022-12-07T01:26:43;100599.16;;;4.62;93.01
12868;BME280;33517;49.866;8.320;2022-12-07T01:29:37;100589.59;;;4.51;92.81
12868;BME280;33517;49.866;8.320;2022-12-07T01:32:29;100598.13;;;4.42;92.89
12868;BME280;33517;49.866;8.320;2022-12-07T01:35:21;100603.00;;;4.36;92.99
12868;BME280;33517;49.866;8.320;2022-12-07T01:38:13;100600.31;;;4.26;93.20
12868;BME280;33517;49.866;8.320;2022-12-07T01:41:05;100595.78;;;4.17;93.00
12868;BME280;33517;49.866;8.320;2022-12-07T01:44:12;100595.94;;;3.94;93.88
12868;BME280;33517;49.866;8.320;2022-12-07T01:47:06;100602.66;;;3.85;94.69
12868;BME280;33517;49.866;8.320;2022-12-07T01:49:58;100596.66;;;3.96;95.11
12868;BME280;33517;49.866;8.320;2022-12-07T01:52:52;100593.31;;;4.16;94.08
12868;BME280;33517;49.866;8.320;2022-12-07T01:55:48;100599.69;;;4.34;93.81
12868;BME280;33517;49.866;8.320;2022-12-07T01:58:43;100585.81;;;4.44;93.82
12868;BME280;33517;49.866;8.320;2022-12-07T02:01:36;100591.50;;;4.49;93.02
12868;BME280;33517;49.866;8.320;2022-12-07T02:04:29;100585.91;;;4.54;93.12
12868;BME280;33517;49.866;8.320;2022-12-07T02:07:21;100583.78;;;4.59;93.34
12868;BME280;33517;49.866;8.320;2022-12-07T02:10:16;100576.97;;;4.67;93.33
12868;BME280;33517;49.866;8.320;2022-12-07T02:13:11;100573.88;;;4.74;93.15
12868;BME280;33517;49.866;8.320;2022-12-07T02:16:19;100577.06;;;4.77;92.92
12868;BME280;33517;49.866;8.320;2022-12-07T02:19:46;100573.63;;;4.77;92.49
12868;BME280;33517;49.866;8.320;2022-12-07T02:23:18;100567.75;;;4.75;92.10
12868;BME280;33517;49.866;8.320;2022-12-07T02:26:28;100567.41;;;4.68;92.31
12868;BME280;33517;49.866;8.320;2022-12-07T02:29:28;100565.13;;;4.75;92.57
12868;BME280;33517;49.866;8.320;2022-12-07T02:32:27;100571.63;;;4.80;92.87
12868;BME280;33517;49.866;8.320;2022-12-07T02:35:26;100569.47;;;4.85;93.00
12868;BME280;33517;49.866;8.320;2022-12-07T02:38:25;100565.28;;;4.94;92.20
12868;BME280;33517;49.866;8.320;2022-12-07T02:41:21;100566.59;;;4.88;92.45
12868;BME280;33517;49.866;8.320;2022-12-07T02:44:16;100558.78;;;4.88;91.93
12868;BME280;33517;49.866;8.320;2022-12-07T02:47:13;100562.09;;;4.90;92.49
12868;BME280;33517;49.866;8.320;2022-12-07T02:50:07;100554.97;;;4.92;92.25
12868;BME280;33517;49.866;8.320;2022-12-07T02:52:59;100554.88;;;4.83;92.11
12868;BME280;33517;49.866;8.320;2022-12-07T02:55:51;100547.47;;;4.78;92.60
12868;BME280;33517;49.866;8.320;2022-12-07T02:58:52;100540.78;;;4.85;92.47
12868;BME280;33517;49.866;8.320;2022-12-07T03:01:56;100542.41;;;4.86;92.54
12868;BME280;33517;49.866;8.320;2022-12-07T03:05:00;100541.97;;;4.81;92.42
12868;BME280;33517;49.866;8.320;2022-12-07T03:08:02;100544.22;;;4.86;93.10
12868;BME280;33517;49.866;8.320;2022-12-07T03:10:59;100537.69;;;4.91;92.76
12868;BME280;33517;49.866;8.320;2022-12-07T03:13:56;100536.41;;;4.86;92.43
12868;BME280;33517;49.866;8.320;2022-12-07T03:16:55;100540.34;;;4.80;92.12
12868;BME280;33517;49.866;8.320;2022-12-07T03:19:53;100535.13;;;4.80;92.94
12868;BME280;33517;49.866;8.320;2022-12-07T03:22:49;100531.63;;;4.91;93.07
12868;BME280;33517;49.866;8.320;2022-12-07T03:25:47;100531.06;;;4.87;92.27
12868;BME280;33517;49.866;8.320;2022-12-07T03:28:45;100536.41;;;4.86;92.27
12868;BME280;33517;49.866;8.320;2022-12-07T03:31:41;100539.44;;;4.91;92.31
12868;BME280;33517;49.866;8.320;2022-12-07T03:34:40;100531.41;;;4.94;92.01
12868;BME280;33517;49.866;8.320;2022-12-07T03:37:38;100522.59;;;4.95;92.04
12868;BME280;33517;49.866;8.320;2022-12-07T03:40:35;100525.78;;;4.98;92.08
12868;BME280;33517;49.866;8.320;2022-12-07T03:43:29;100530.50;;;5.04;91.70
12868;BME280;33517;49.866;8.320;2022-12-07T03:46:28;100531.63;;;5.11;91.81
12868;BME280;33517;49.866;8.320;2022-12-07T03:49:25;100535.78;;;5.14;91.41
12868;BME280;33517;49.866;8.320;2022-12-07T03:52:24;100532.59;;;5.10;90.95
12868;BME280;33517;49.866;8.320;2022-12-07T03:55:23;100530.13;;;5.09;91.55
12868;BME280;33517;49.866;8.320;2022-12-07T03:58:19;100521.78;;;5.15;91.23
12868;BME280;33517;49.866;8.320;2022-12-07T04:01:12;100527.38;;;5.10;91.30
12868;BME280;33517;49.866;8.320;2022-12-07T04:04:04;100518.84;;;5.08;91.93
12868;BME280;33517;49.866;8.320;2022-12-07T04:06:55;100524.78;;;5.10;91.74
12868;BME280;33517;49.866;8.320;2022-12-07T04:09:47;100526.81;;;5.07;91.26
12868;BME280;33517;49.866;8.320;2022-12-07T04:12:40;100522.81;;;5.03;92.04
12868;BME280;33517;49.866;8.320;2022-12-07T04:15:32;100520.69;;;4.97;92.28
12868;BME280;33517;49.866;8.320;2022-12-07T04:18:24;100522.16;;;4.90;91.84
12868;BME280;33517;49.866;8.320;2022-12-07T04:21:16;100529.59;;;4.94;91.91
12868;BME280;33517;49.866;8.320;2022-12-07T04:24:08;100520.19;;;5.03;92.28
12868;BME280;33517;49.866;8.320;2022-12-07T04:27:00;100518.16;;;5.06;91.97
12868;BME280;33517;49.866;8.320;2022-12-07T04:29:53;100515.28;;;5.09;91.49
12868;BME280;33517;49.866;8.320;2022-12-07T04:32:46;100512.94;;;5.06;91.42
12868;BME280;33517;49.866;8.320;2022-12-07T04:35:38;100511.16;;;5.07;92.11
12868;BME280;33517;49.866;8.320;2022-12-07T04:38:30;100515.56;;;5.06;91.86
12868;BME280;33517;49.866;8.320;2022-12-07T04:41:23;100513.78;;;5.07;91.72
12868;BME280;33517;49.866;8.320;2022-12-07T04:44:18;100517.09;;;5.09;91.43
12868;BME280;33517;49.866;8.320;2022-12-07T04:47:12;100524.06;;;5.08;92.26
12868;BME280;33517;49.866;8.320;2022-12-07T04:50:05;100519.94;;;5.06;91.66
12868;BME280;33517;49.866;8.320;2022-12-07T04:52:57;100517.03;;;4.99;92.00
12868;BME280;33517;49.866;8.320;2022-12-07T04:55:49;100531.25;;;4.95;91.83
12868;BME280;33517;49.866;8.320;2022-12-07T04:58:41;100519.03;;;4.96;92.30
12868;BME280;33517;49.866;8.320;2022-12-07T05:01:33;100515.47;;;4.97;91.95
12868;BME280;33517;49.866;8.320;2022-12-07T05:04:26;100513.22;;;5.03;91.84
12868;BME280;33517;49.866;8.320;2022-12-07T05:07:18;100508.09;;;5.02;91.86
12868;BME280;33517;49.866;8.320;2022-12-07T05:10:10;100508.38;;;4.99;91.85
12868;BME280;33517;49.866;8.320;2022-12-07T05:13:02;100502.31;;;4.98;92.18
12868;BME280;33517;49.866;8.320;2022-12-07T05:15:54;100502.31;;;4.98;92.09
12868;BME280;33517;49.866;8.320;2022-12-07T05:18:46;100502.59;;;4.95;92.08
12868;BME280;33517;49.866;8.320;2022-12-07T05:21:39;100506.13;;;4.94;92.12
12868;BME280;33517;49.866;8.320;2022-12-07T05:24:31;100505.06;;;4.97;91.93
12868;BME280;33517;49.866;8.320;2022-12-07T05:27:23;100506.13;;;4.94;92.53
12868;BME280;33517;49.866;8.320;2022-12-07T05:30:16;100513.94;;;4.94;91.90
12868;BME280;33517;49.866;8.320;2022-12-07T05:33:08;100512.75;;;4.98;92.32
12868;BME280;33517;49.866;8.320;2022-12-07T05:35:59;100515.47;;;4.97;91.86
12868;BME280;33517;49.866;8.320;2022-12-07T05:38:57;100514.00;;;5.04;91.89
12868;BME280;33517;49.866;8.320;2022-12-07T05:41:49;100501.94;;;5.03;91.73
12868;BME280;33517;49.866;8.320;2022-12-07T05:44:58;100509.91;;;5.01;92.12
12868;BME280;33517;49.866;8.320;2022-12-07T05:47:50;100508.00;;;5.03;91.71
12868;BME280;33517;49.866;8.320;2022-12-07T05:50:42;100513.88;;;5.05;91.74
12868;BME280;33517;49.866;8.320;2022-12-07T05:53:34;100513.78;;;5.07;91.83
12868;BME280;33517;49.866;8.320;2022-12-07T05:56:27;100512.25;;;5.04;91.39
12868;BME280;33517;49.866;8.320;2022-12-07T05:59:19;100499.41;;;5.12;92.16
12868;BME280;33517;49.866;8.320;2022-12-07T06:02:15;100501.59;;;5.17;91.58
12868;BME280;33517;49.866;8.320;2022-12-07T06:05:08;100505.75;;;5.19;91.68
12868;BME280;33517;49.866;8.320;2022-12-07T06:08:00;100504.22;;;5.17;91.34
12868;BME280;33517;49.866;8.320;2022-12-07T06:10:51;100499.13;;;5.15;91.13
12868;BME280;33517;49.866;8.320;2022-12-07T06:14:05;100504.34;;;5.15;91.24
12868;BME280;33517;49.866;8.320;2022-12-07T06:16:55;100501.38;;;5.20;90.68
12868;BME280;33517;49.866;8.320;2022-12-07T06:19:47;100499.59;;;5.20;91.05
12868;BME280;33517;49.866;8.320;2022-12-07T06:22:39;100499.81;;;5.17;90.91
12868;BME280;33517;49.866;8.320;2022-12-07T06:25:31;100498.06;;;5.18;91.55
12868;BME280;33517;49.866;8.320;2022-12-07T06:28:23;100515.59;;;5.16;91.34
12868;BME280;33517;49.866;8.320;2022-12-07T06:31:16;100505.50;;;5.22;91.53
12868;BME280;33517;49.866;8.320;2022-12-07T06:34:10;100511.00;;;5.29;91.34
12868;BME280;33517;49.866;8.320;2022-12-07T06:37:03;100515.28;;;5.30;90.72
12868;BME280;33517;49.866;8.320;2022-12-07T06:39:55;100506.38;;;5.32;90.91
12868;BME280;33517;49.866;8.320;2022-12-07T06:42:47;100504.97;;;5.28;90.61
12868;BME280;33517;49.866;8.320;2022-12-07T06:45:38;100510.31;;;5.27;91.10
12868;BME280;33517;49.866;8.320;2022-12-07T06:48:33;100512.94;;;5.27;90.71
12868;BME280;33517;49.866;8.320;2022-12-07T06:51:25;100510.31;;;5.27;91.37
12868;BME280;33517;49.866;8.320;2022-12-07T06:54:17;100503.31;;;5.27;91.23
12868;BME280;33517;49.866;8.320;2022-12-07T06:57:09;100516.63;;;5.24;91.36
12868;BME280;33517;49.866;8.320;2022-12-07T07:00:02;100512.34;;;5.23;91.38
12868;BME280;33517;49.866;8.320;2022-12-07T07:02:54;100519.47;;;5.21;91.21
12868;BME280;33517;49.866;8.320;2022-12-07T07:05:47;100523.50;;;5.25;91.05
12868;BME280;33517;49.866;8.320;2022-12-07T07:08:40;100524.47;;;5.24;90.94
12868;BME280;33517;49.866;8.320;2022-12-07T07:11:32;100529.78;;;5.23;90.90
12868;BME280;33517;49.866;8.320;2022-12-07T07:14:24;100531.81;;;5.19;90.64
12868;BME280;33517;49.866;8.320;2022-12-07T07:17:15;100532.91;;;5.17;91.49
12868;BME280;33517;49.866;8.320;2022-12-07T07:20:08;100527.69;;;5.17;91.87
12868;BME280;33517;49.866;8.320;2022-12-07T07:23:02;100540.50;;;5.20;91.38
12868;BME280;33517;49.866;8.320;2022-12-07T07:25:54;100533.38;;;5.22;91.39
12868;BME280;33517;49.866;8.320;2022-12-07T07:28:46;100539.16;;;5.25;91.32
12868;BME280;33517;49.866;8.320;2022-12-07T07:31:38;100540.53;;;5.29;91.32
12868;BME280;33517;49.866;8.320;2022-12-07T07:34:29;100539.72;;;5.29;91.25
12868;BME280;33517;49.866;8.320;2022-12-07T07:37:21;100539.34;;;5.33;90.70
12868;BME280;33517;49.866;8.320;2022-12-07T07:40:15;100543.03;;;5.31;91.10
12868;BME280;33517;49.866;8.320;2022-12-07T07:43:07;100532.06;;;5.37;91.37
12868;BME280;33517;49.866;8.320;2022-12-07T07:45:59;100537.28;;;5.37;90.80
12868;BME280;33517;49.866;8.320;2022-12-07T07:48:50;100539.91;;;5.37;91.16
12868;BME280;33517;49.866;8.320;2022-12-07T07:51:42;100541.03;;;5.44;90.89
12868;BME280;33517;49.866;8.320;2022-12-07T07:54:35;100541.50;;;5.49;91.23
12868;BME280;33517;49.866;8.320;2022-12-07T07:57:28;100540.78;;;5.47;90.43
12868;BME280;33517;49.866;8.320;2022-12-07T08:00:21;100540.09;;;5.45;90.85
12868;BME280;33517;49.866;8.320;2022-12-07T08:03:13;100541.50;;;5.49;90.72
12868;BME280;33517;49.866;8.320;2022-12-07T08:06:05;100540.84;;;5.56;91.15
12868;BME280;33517;49.866;8.320;2022-12-07T08:08:57;100545.78;;;5.59;91.47
12868;BME280;33517;49.866;8.320;2022-12-07T08:11:49;100546.16;;;5.76;91.21
12868;BME280;33517;49.866;8.320;2022-12-07T08:14:42;100546.41;;;5.93;90.30
12868;BME280;33517;49.866;8.320;2022-12-07T08:17:34;100542.84;;;6.04;89.93
12868;BME280;33517;49.866;8.320;2022-12-07T08:20:26;100545.34;;;6.15;89.43
12868;BME280;33517;49.866;8.320;2022-12-07T08:23:18;100551.97;;;6.28;89.51
12868;BME280;33517;49.866;8.320;2022-12-07T08:26:11;100554.44;;;6.30;88.87
12868;BME280;33517;49.866;8.320;2022-12-07T08:29:03;100549.53;;;6.36;88.68
12868;BME280;33517;49.866;8.320;2022-12-07T08:31:57;100548.00;;;6.34;88.33
12868;BME280;33517;49.866;8.320;2022-12-07T08:34:52;100550.06;;;6.30;88.72
12868;BME280;33517;49.866;8.320;2022-12-07T08:37:44;100547.31;;;6.41;88.40
12868;BME280;33517;49.866;8.320;2022-12-07T08:40:36;100550.47;;;6.35;88.48
12868;BME280;33517;49.866;8.320;2022-12-07T08:43:28;100543.06;;;6.40;88.49
12868;BME280;33517;49.866;8.320;2022-12-07T08:46:23;100556.41;;;6.47;88.27
12868;BME280;33517;49.866;8.320;2022-12-07T08:49:20;100555.88;;;6.53;87.32
12868;BME280;33517;49.866;8.320;2022-12-07T08:52:13;100556.56;;;6.55;87.07
12868;BME280;33517;49.866;8.320;2022-12-07T08:55:06;100553.25;;;6.43;86.67
12868;BME280;33517;49.866;8.320;2022-12-07T08:57:58;100550.78;;;6.42;86.87
12868;BME280;33517;49.866;8.320;2022-12-07T09:00:50;100556.38;;;6.37;87.01
12868;BME280;33517;49.866;8.320;2022-12-07T09:03:42;100556.13;;;6.40;87.18
12868;BME280;33517;49.866;8.320;2022-12-07T09:06:36;100560.69;;;6.48;87.50
12868;BME280;33517;49.866;8.320;2022-12-07T09:09:27;100557.41;;;6.75;87.23
12868;BME280;33517;49.866;8.320;2022-12-07T09:12:19;100562.94;;;6.81;85.94
12868;BME280;33517;49.866;8.320;2022-12-07T09:15:11;100559.75;;;6.87;84.61
12868;BME280;33517;49.866;8.320;2022-12-07T09:18:03;100565.41;;;6.92;84.97
12868;BME280;33517;49.866;8.320;2022-12-07T09:20:56;100562.94;;;7.00;85.26
12868;BME280;33517;49.866;8.320;2022-12-07T09:23:49;100567.31;;;7.19;85.75
12868;BME280;33517;49.866;8.320;2022-12-07T09:26:41;100569.78;;;7.30;84.80
12868;BME280;33517;49.866;8.320;2022-12-07T09:29:34;100572.94;;;7.24;83.99
12868;BME280;33517;49.866;8.320;2022-12-07T09:32:26;100578.34;;;7.13;84.47
12868;BME280;33517;49.866;8.320;2022-12-07T09:35:18;100580.66;;;7.16;84.88
12868;BME280;33517;49.866;8.320;2022-12-07T09:38:10;100566.22;;;7.12;83.79
12868;BME280;33517;49.866;8.320;2022-12-07T09:41:06;100568.16;;;6.91;83.77
12868;BME280;33517;49.866;8.320;2022-12-07T09:44:03;100567.31;;;7.00;84.07
12868;BME280;33517;49.866;8.320;2022-12-07T09:46:56;100568.91;;;7.39;83.50
12868;BME280;33517;49.866;8.320;2022-12-07T09:49:49;100564.75;;;7.92;82.81
12868;BME280;33517;49.866;8.320;2022-12-07T09:52:43;100555.53;;;8.25;80.11
12868;BME280;33517;49.866;8.320;2022-12-07T09:55:36;100557.63;;;10.04;77.18
12868;BME280;33517;49.866;8.320;2022-12-07T09:58:32;100555.09;;;12.36;70.17
12868;BME280;33517;49.866;8.320;2022-12-07T10:01:28;100548.53;;;12.32;62.93
12868;BME280;33517;49.866;8.320;2022-12-07T10:04:22;100556.22;;;10.17;68.39
12868;BME280;33517;49.866;8.320;2022-12-07T10:07:15;100557.75;;;8.82;72.27
12868;BME280;33517;49.866;8.320;2022-12-07T10:10:14;100556.19;;;8.00;75.06
12868;BME280;33517;49.866;8.320;2022-12-07T10:13:08;100554.09;;;8.40;75.99
12868;BME280;33517;49.866;8.320;2022-12-07T10:16:02;100547.78;;;8.51;75.18
12868;BME280;33517;49.866;8.320;2022-12-07T10:18:54;100543.06;;;8.54;76.48
12868;BME280;33517;49.866;8.320;2022-12-07T10:22:04;100544.50;;;8.66;75.87
12868;BME280;33517;49.866;8.320;2022-12-07T10:25:07;100541.13;;;8.74;76.46
12868;BME280;33517;49.866;8.320;2022-12-07T10:28:02;100537.69;;;8.73;76.69
12868;BME280;33517;49.866;8.320;2022-12-07T10:30:57;100537.91;;;8.62;76.91
12868;BME280;33517;49.866;8.320;2022-12-07T10:33:53;100534.06;;;8.39;77.59
12868;BME280;33517;49.866;8.320;2022-12-07T10:36:45;100523.50;;;8.21;77.96
12868;BME280;33517;49.866;8.320;2022-12-07T10:39:42;100520.47;;;7.99;78.00
12868;BME280;33517;49.866;8.320;2022-12-07T10:42:34;100519.69;;;7.89;78.87
12868;BME280;33517;49.866;8.320;2022-12-07T10:45:26;100516.25;;;8.95;77.93
12868;BME280;33517;49.866;8.320;2022-12-07T10:48:23;100501.25;;;10.56;75.47
12868;BME280;33517;49.866;8.320;2022-12-07T10:51:25;100506.47;;;12.98;71.55
12868;BME280;33517;49.866;8.320;2022-12-07T10:54:27;100496.56;;;14.46;65.83
12868;BME280;33517;49.866;8.320;2022-12-07T10:57:35;100490.50;;;15.43;62.25
12868;BME280;33517;49.866;8.320;2022-12-07T11:00:36;100500.41;;;15.07;62.59
12868;BME280;33517;49.866;8.320;2022-12-07T11:03:37;100497.59;;;15.15;62.51
12868;BME280;33517;49.866;8.320;2022-12-07T11:06:35;100498.47;;;14.52;59.54
12868;BME280;33517;49.866;8.320;2022-12-07T11:09:53;100495.19;;;14.14;60.76
12868;BME280;33517;49.866;8.320;2022-12-07T11:13:00;100496.28;;;12.50;59.42
12868;BME280;33517;49.866;8.320;2022-12-07T11:16:24;100489.16;;;12.58;60.31
12868;BME280;33517;49.866;8.320;2022-12-07T11:19:46;100491.91;;;12.12;60.65
12868;BME280;33517;49.866;8.320;2022-12-07T11:22:49;100484.84;;;11.57;62.30
12868;BME280;33517;49.866;8.320;2022-12-07T11:25:49;100491.72;;;10.87;62.92
12868;BME280;33517;49.866;8.320;2022-12-07T11:28:58;100488.56;;;10.44;65.14
12868;BME280;33517;49.866;8.320;2022-12-07T11:31:59;100487.59;;;9.95;66.10
12868;BME280;33517;49.866;8.320;2022-12-07T11:35:01;100480.81;;;10.34;66.12
12868;BME280;33517;49.866;8.320;2022-12-07T11:38:01;100469.31;;;11.07;65.57
12868;BME280;33517;49.866;8.320;2022-12-07T11:41:02;100460.34;;;12.49;62.48
12868;BME280;33517;49.866;8.320;2022-12-07T11:44:06;100451.00;;;13.35;60.34
12868;BME280;33517;49.866;8.320;2022-12-07T11:47:02;100459.38;;;13.82;58.43
12868;BME280;33517;49.866;8.320;2022-12-07T11:50:05;100452.41;;;13.96;57.23
12868;BME280;33517;49.866;8.320;2022-12-07T11:53:12;100444.44;;;13.60;57.85
12868;BME280;33517;49.866;8.320;2022-12-07T11:56:09;100448.06;;;13.16;57.80
12868;BME280;33517;49.866;8.320;2022-12-07T11:59:08;100443.44;;;13.97;58.87
12868;BME280;33517;49.866;8.320;2022-12-07T12:02:12;100442.97;;;14.44;56.96
12868;BME280;33517;49.866;8.320;2022-12-07T12:05:12;100446.50;;;14.72;53.42
12868;BME280;33517;49.866;8.320;2022-12-07T12:08:13;100441.25;;;14.78;54.01
12868;BME280;33517;49.866;8.320;2022-12-07T12:11:18;100440.91;;;15.16;51.00
12868;BME280;33517;49.866;8.320;2022-12-07T12:14:22;100438.94;;;14.97;51.21
12868;BME280;33517;49.866;8.320;2022-12-07T12:17:35;100435.81;;;13.87;54.65
12868;BME280;33517;49.866;8.320;2022-12-07T12:20:33;100435.31;;;13.05;56.67
12868;BME280;33517;49.866;8.320;2022-12-07T12:23:36;100434.19;;;11.86;59.20
12868;BME280;33517;49.866;8.320;2022-12-07T12:26:33;100426.06;;;11.49;59.52
12868;BME280;33517;49.866;8.320;2022-12-07T12:29:31;100423.13;;;11.52;60.20
12868;BME280;33517;49.866;8.320;2022-12-07T12:32:34;100420.53;;;11.36;59.98
12868;BME280;33517;49.866;8.320;2022-12-07T12:35:30;100424.03;;;11.12;60.56
12868;BME280;33517;49.866;8.320;2022-12-07T12:38:33;100421.47;;;10.40;61.61
12868;BME280;33517;49.866;8.320;2022-12-07T12:41:59;100430.91;;;9.92;63.57
12868;BME280;33517;49.866;8.320;2022-12-07T12:45:17;100418.47;;;9.61;64.32
12868;BME280;33517;49.866;8.320;2022-12-07T12:48:27;100418.22;;;9.80;64.88
12868;BME280;33517;49.866;8.320;2022-12-07T12:51:39;100403.75;;;9.84;64.42
12868;BME280;33517;49.866;8.320;2022-12-07T12:54:35;100406.09;;;9.87;64.69
12868;BME280;33517;49.866;8.320;2022-12-07T12:57:30;100400.81;;;9.87;64.60
12868;BME280;33517;49.866;8.320;2022-12-07T13:00:23;100402.75;;;9.77;64.81
12868;BME280;33517;49.866;8.320;2022-12-07T13:03:23;100399.19;;;9.44;65.75
12868;BME280;33517;49.866;8.320;2022-12-07T13:06:19;100396.91;;;9.41;65.57
12868;BME280;33517;49.866;8.320;2022-12-07T13:09:25;100389.44;;;9.70;65.81
12868;BME280;33517;49.866;8.320;2022-12-07T13:12:19;100390.91;;;10.31;64.61
12868;BME280;33517;49.866;8.320;2022-12-07T13:15:36;100379.88;;;10.27;62.48
12868;BME280;33517;49.866;8.320;2022-12-07T13:18:35;100379.91;;;10.35;62.72
12868;BME280;33517;49.866;8.320;2022-12-07T13:21:43;100382.16;;;10.70;60.20
12868;BME280;33517;49.866;8.320;2022-12-07T13:24:35;100382.75;;;11.04;60.31
12868;BME280;33517;49.866;8.320;2022-12-07T13:27:30;100379.63;;;11.56;58.29
12868;BME280;33517;49.866;8.320;2022-12-07T13:30:22;100378.78;;;11.17;58.79
12868;BME280;33517;49.866;8.320;2022-12-07T13:33:17;100380.84;;;10.26;60.78
12868;BME280;33517;49.866;8.320;2022-12-07T13:36:17;100384.69;;;9.32;62.92
12868;BME280;33517;49.866;8.320;2022-12-07T13:39:17;100382.06;;;8.73;64.27
12868;BME280;33517;49.866;8.320;2022-12-07T13:42:17;100386.75;;;8.61;64.73
12868;BME280;33517;49.866;8.320;2022-12-07T13:45:22;100383.47;;;8.59;65.62
12868;BME280;33517;49.866;8.320;2022-12-07T13:48:43;100380.63;;;8.35;65.61
12868;BME280;33517;49.866;8.320;2022-12-07T13:51:36;100386.41;;;8.21;66.48
12868;BME280;33517;49.866;8.320;2022-12-07T13:54:30;100376.06;;;8.02;67.39
12868;BME280;33517;49.866;8.320;2022-12-07T13:57:24;100381.97;;;7.86;67.29
12868;BME280;33517;49.866;8.320;2022-12-07T14:00:20;100373.56;;;7.83;68.67
12868;BME280;33517;49.866;8.320;2022-12-07T14:03:36;100373.81;;;8.07;68.31
12868;BME280;33517;49.866;8.320;2022-12-07T14:06:28;100364.28;;;8.23;68.55
12868;BME280;33517;49.866;8.320;2022-12-07T14:09:22;100366.91;;;8.23;67.98
12868;BME280;33517;49.866;8.320;2022-12-07T14:12:14;100377.16;;;8.26;68.64
12868;BME280;33517;49.866;8.320;2022-12-07T14:15:21;100370.91;;;8.27;68.40
12868;BME280;33517;49.866;8.320;2022-12-07T14:18:26;100368.19;;;8.19;68.40
12868;BME280;33517;49.866;8.320;2022-12-07T14:21:21;100373.38;;;8.29;68.05
12868;BME280;33517;49.866;8.320;2022-12-07T14:24:19;100371.81;;;8.36;68.65
12868;BME280;33517;49.866;8.320;2022-12-07T14:27:17;100372.50;;;8.38;68.40
12868;BME280;33517;49.866;8.320;2022-12-07T14:30:16;100368.97;;;8.29;69.33
12868;BME280;33517;49.866;8.320;2022-12-07T14:33:10;100372.72;;;8.09;68.46
12868;BME280;33517;49.866;8.320;2022-12-07T14:36:03;100369.31;;;7.99;70.07
12868;BME280;33517;49.866;8.320;2022-12-07T14:38:55;100364.09;;;7.99;70.40
12868;BME280;33517;49.866;8.320;2022-12-07T14:41:48;100361.91;;;7.95;70.18
12868;BME280;33517;49.866;8.320;2022-12-07T14:44:44;100367.63;;;7.90;71.26
12868;BME280;33517;49.866;8.320;2022-12-07T14:47:36;100362.72;;;7.78;71.53
12868;BME280;33517;49.866;8.320;2022-12-07T14:50:30;100371.91;;;7.64;71.16
12868;BME280;33517;49.866;8.320;2022-12-07T14:53:29;100362.81;;;7.41;71.56
12868;BME280;33517;49.866;8.320;2022-12-07T14:56:21;100365.47;;;7.31;71.84
12868;BME280;33517;49.866;8.320;2022-12-07T14:59:13;100365.91;;;7.27;72.71
12868;BME280;33517;49.866;8.320;2022-12-07T15:02:05;100367.28;;;7.31;72.61
12868;BME280;33517;49.866;8.320;2022-12-07T15:04:57;100363.19;;;7.19;72.44
12868;BME280;33517;49.866;8.320;2022-12-07T15:07:51;100363.28;;;7.00;73.09
12868;BME280;33517;49.866;8.320;2022-12-07T15:10:43;100358.25;;;6.79;73.25
12868;BME280;33517;49.866;8.320;2022-12-07T15:13:35;100359.22;;;6.69;74.63
12868;BME280;33517;49.866;8.320;2022-12-07T15:16:44;100367.06;;;6.69;74.17
12868;BME280;33517;49.866;8.320;2022-12-07T15:19:36;100363.06;;;6.74;75.04
12868;BME280;33517;49.866;8.320;2022-12-07T15:22:28;100358.69;;;6.75;75.63
12868;BME280;33517;49.866;8.320;2022-12-07T15:25:21;100360.19;;;6.77;74.87
12868;BME280;33517;49.866;8.320;2022-12-07T15:28:14;100351.66;;;6.75;75.89